createdAt,value
2022-10-06T00:00:49.289Z,101762.66
2022-10-06T00:03:16.324Z,101766.56
2022-10-06T00:05:43.441Z,101771.75
2022-10-06T00:08:10.438Z,101770.91
2022-10-06T00:10:36.919Z,101786.97
2022-10-06T00:13:03.435Z,101783.94
2022-10-06T00:15:32.307Z,101794.44
2022-10-06T00:17:59.142Z,101798.53
2022-10-06T00:20:26.857Z,101795.25
2022-10-06T00:22:53.873Z,101808.22
2022-10-06T00:25:22.905Z,101816.66
2022-10-06T00:27:51.383Z,101826.84
2022-10-06T00:30:26.527Z,101829.09
2022-10-06T00:32:59.182Z,101838.31
2022-10-06T00:35:28.118Z,101840.16
2022-10-06T00:37:54.867Z,101853.91
2022-10-06T00:40:22.817Z,101844.97
2022-10-06T00:42:53.787Z,101859.22
2022-10-06T00:45:39.414Z,101851.81
2022-10-06T00:48:13.730Z,101862.28
2022-10-06T00:50:41.148Z,101869.31
2022-10-06T00:53:07.784Z,101872.41
2022-10-06T00:55:34.163Z,101881.66
2022-10-06T00:58:01.207Z,101881.13
2022-10-06T01:00:28.492Z,101886.56
2022-10-06T01:03:04.339Z,101897.53
2022-10-06T01:05:35.048Z,101884.06
2022-10-06T01:08:02.003Z,101903.28
2022-10-06T01:10:28.360Z,101895.06
2022-10-06T01:12:56.040Z,101903.59
2022-10-06T01:15:24.907Z,101903.06
2022-10-06T01:18:13.807Z,101903.34
2022-10-06T01:20:49.313Z,101921.88
2022-10-06T01:23:16.541Z,101916.09
2022-10-06T01:25:44.252Z,101925.91
2022-10-06T01:28:12.926Z,101925.69
2022-10-06T01:30:45.944Z,101932.03
2022-10-06T01:33:12.361Z,101937.31
2022-10-06T01:35:38.733Z,101946.53
2022-10-06T01:38:05.132Z,101945.94
2022-10-06T01:40:31.533Z,101947.44
2022-10-06T01:42:58.048Z,101957.97
2022-10-06T01:45:24.402Z,101962.31
2022-10-06T01:47:50.799Z,101960.59
2022-10-06T01:50:17.297Z,101966.00
2022-10-06T01:52:43.662Z,101964.75
2022-10-06T01:55:10.157Z,101967.38
2022-10-06T01:57:41.241Z,101971.56
2022-10-06T02:00:08.544Z,101977.47
2022-10-06T02:02:34.911Z,101982.72
2022-10-06T02:05:01.387Z,101978.59
2022-10-06T02:07:31.245Z,101972.16
2022-10-06T02:09:57.624Z,101973.22
2022-10-06T02:12:24.039Z,101978.28
2022-10-06T02:14:50.421Z,101987.31
2022-10-06T02:17:16.778Z,101996.50
2022-10-06T02:19:43.174Z,102001.00
2022-10-06T02:22:09.585Z,102006.53
2022-10-06T02:24:35.989Z,102005.00
2022-10-06T02:27:02.868Z,102005.38
2022-10-06T02:29:29.232Z,102005.16
2022-10-06T02:31:55.785Z,102017.28
2022-10-06T02:34:22.129Z,102028.91
2022-10-06T02:36:48.502Z,102031.34
2022-10-06T02:39:14.852Z,102039.19
2022-10-06T02:41:41.224Z,102037.59
2022-10-06T02:44:07.640Z,102051.03
2022-10-06T02:46:34.089Z,102053.75
2022-10-06T02:49:00.471Z,102051.75
2022-10-06T02:51:26.942Z,102051.91
2022-10-06T02:53:54.280Z,102059.63
2022-10-06T02:56:23.473Z,102054.06
2022-10-06T02:58:51.506Z,102056.78
2022-10-06T03:01:24.044Z,102058.50
2022-10-06T03:03:50.461Z,102076.31
2022-10-06T03:06:24.046Z,102074.19
2022-10-06T03:08:57.060Z,102078.19
2022-10-06T03:11:29.431Z,102080.63
2022-10-06T03:13:56.156Z,102082.16
2022-10-06T03:16:28.435Z,102090.56
2022-10-06T03:18:55.818Z,102097.13
2022-10-06T03:21:25.126Z,102095.84
2022-10-06T03:23:53.588Z,102101.00
2022-10-06T03:26:23.111Z,102103.81
2022-10-06T03:28:49.531Z,102101.13
2022-10-06T03:31:16.346Z,102109.53
2022-10-06T03:33:42.805Z,102118.25
2022-10-06T03:36:14.627Z,102118.94
2022-10-06T03:38:41.413Z,102116.53
2022-10-06T03:41:15.049Z,102119.94
2022-10-06T03:43:43.694Z,102121.78
2022-10-06T03:46:11.941Z,102137.34
2022-10-06T03:48:39.346Z,102137.44
2022-10-06T03:51:10.394Z,102136.16
2022-10-06T03:53:37.381Z,102145.72
2022-10-06T03:56:04.930Z,102144.88
2022-10-06T03:58:33.506Z,102147.16
2022-10-06T04:01:07.858Z,102151.16
2022-10-06T04:03:34.982Z,102153.59
2022-10-06T04:06:04.002Z,102162.56
2022-10-06T04:08:32.385Z,102166.53
2022-10-06T04:11:22.648Z,102173.78
2022-10-06T04:13:54.622Z,102181.47
2022-10-06T04:16:24.346Z,102182.94
2022-10-06T04:18:52.930Z,102187.75
2022-10-06T04:21:19.981Z,102192.56
2022-10-06T04:23:46.743Z,102192.03
2022-10-06T04:26:15.487Z,102199.13
2022-10-06T04:28:46.803Z,102208.69
2022-10-06T04:31:22.439Z,102210.53
2022-10-06T04:33:52.828Z,102220.66
2022-10-06T04:36:25.985Z,102215.53
2022-10-06T04:38:56.234Z,102219.72
2022-10-06T04:41:23.965Z,102220.66
2022-10-06T04:43:50.999Z,102222.84
2022-10-06T04:46:41.717Z,102231.22
2022-10-06T04:49:05.526Z,102234.25
2022-10-06T04:51:31.913Z,102234.69
2022-10-06T04:53:58.376Z,102234.69
2022-10-06T04:56:27.363Z,102238.88
2022-10-06T04:58:55.598Z,102237.00
2022-10-06T05:01:31.886Z,102245.50
2022-10-06T05:04:00.872Z,102247.88
2022-10-06T05:06:28.415Z,102246.63
2022-10-06T05:08:57.495Z,102252.78
2022-10-06T05:11:25.993Z,102261.56
2022-10-06T05:13:54.879Z,102265.56
2022-10-06T05:16:22.452Z,102270.50
2022-10-06T05:18:48.932Z,102273.81
2022-10-06T05:21:24.260Z,102271.50
2022-10-06T05:23:50.692Z,102273.16
2022-10-06T05:26:21.030Z,102279.75
2022-10-06T05:28:48.228Z,102293.38
2022-10-06T05:31:20.650Z,102292.09
2022-10-06T05:33:47.748Z,102293.44
2022-10-06T05:36:16.883Z,102298.22
2022-10-06T05:38:44.105Z,102303.59
2022-10-06T05:41:16.238Z,102312.06
2022-10-06T05:43:43.261Z,102314.63
2022-10-06T05:46:24.771Z,102318.44
2022-10-06T05:48:56.739Z,102331.09
2022-10-06T05:51:30.342Z,102322.00
2022-10-06T05:53:57.692Z,102327.75
2022-10-06T05:56:26.517Z,102330.44
2022-10-06T05:58:55.021Z,102331.56
2022-10-06T06:01:25.808Z,102337.91
2022-10-06T06:03:54.586Z,102347.50
2022-10-06T06:06:29.752Z,102349.59
2022-10-06T06:09:06.849Z,102353.88
2022-10-06T06:11:35.235Z,102356.44
2022-10-06T06:14:06.832Z,102356.13
2022-10-06T06:16:33.719Z,102365.09
2022-10-06T06:19:01.231Z,102378.03
2022-10-06T06:21:29.096Z,102375.66
2022-10-06T06:23:56.235Z,102378.94
2022-10-06T06:26:33.645Z,102378.22
2022-10-06T06:29:04.247Z,102376.63
2022-10-06T06:31:38.770Z,102377.69
2022-10-06T06:34:11.394Z,102381.34
2022-10-06T06:36:44.901Z,102390.78
2022-10-06T06:39:13.568Z,102392.09
2022-10-06T06:41:42.499Z,102390.16
2022-10-06T06:44:11.416Z,102387.72
2022-10-06T06:46:38.964Z,102396.25
2022-10-06T06:49:06.346Z,102398.25
2022-10-06T06:51:40.176Z,102408.19
2022-10-06T06:54:07.682Z,102401.19
2022-10-06T06:56:35.335Z,102409.63
2022-10-06T06:59:03.828Z,102411.81
2022-10-06T07:01:30.617Z,102421.53
2022-10-06T07:03:59.319Z,102426.44
2022-10-06T07:06:29.101Z,102430.78
2022-10-06T07:08:57.668Z,102444.31
2022-10-06T07:11:32.691Z,102443.38
2022-10-06T07:14:01.772Z,102444.25
2022-10-06T07:16:48.483Z,102447.31
2022-10-06T07:19:35.622Z,102447.41
2022-10-06T07:22:24.895Z,102452.72
2022-10-06T07:25:07.048Z,102455.88
2022-10-06T07:27:45.650Z,102462.72
2022-10-06T07:30:19.044Z,102475.13
2022-10-06T07:32:46.746Z,102469.31
2022-10-06T07:35:13.550Z,102479.28
2022-10-06T07:37:40.634Z,102476.72
2022-10-06T07:40:08.667Z,102489.59
2022-10-06T07:42:48.409Z,102491.03
2022-10-06T07:45:36.130Z,102497.66
2022-10-06T07:48:03.513Z,102508.47
2022-10-06T07:50:30.256Z,102505.22
2022-10-06T07:52:56.802Z,102509.66
2022-10-06T07:55:23.480Z,102514.19
2022-10-06T07:57:51.265Z,102522.03
2022-10-06T08:00:20.745Z,102518.50
2022-10-06T08:02:47.356Z,102523.56
2022-10-06T08:05:14.164Z,102525.19
2022-10-06T08:07:41.356Z,102522.19
2022-10-06T08:10:08.053Z,102524.22
2022-10-06T08:12:34.608Z,102532.09
2022-10-06T08:15:06.110Z,102531.28
2022-10-06T08:17:35.444Z,102528.06
2022-10-06T08:20:02.760Z,102528.25
2022-10-06T08:22:30.128Z,102542.84
2022-10-06T08:25:05.682Z,102533.63
2022-10-06T08:27:33.495Z,102539.97
2022-10-06T08:29:59.898Z,102540.38
2022-10-06T08:32:26.469Z,102535.75
2022-10-06T08:34:53.105Z,102529.00
2022-10-06T08:37:27.296Z,102536.44
2022-10-06T08:39:54.687Z,102539.94
2022-10-06T08:42:48.439Z,102540.47
2022-10-06T08:45:24.052Z,102543.31
2022-10-06T08:48:00.390Z,102551.47
2022-10-06T08:50:29.323Z,102549.88
2022-10-06T08:53:14.078Z,102563.03
2022-10-06T08:55:51.295Z,102560.28
2022-10-06T08:58:17.670Z,102565.72
2022-10-06T09:00:44.221Z,102566.44
2022-10-06T09:03:22.174Z,102575.84
2022-10-06T09:05:48.710Z,102581.97
2022-10-06T09:08:53.921Z,102581.75
2022-10-06T09:11:35.043Z,102590.97
2022-10-06T09:14:10.585Z,102598.88
2022-10-06T09:16:41.602Z,102593.28
2022-10-06T09:19:19.935Z,102594.34
2022-10-06T09:21:52.222Z,102598.84
2022-10-06T09:24:29.866Z,102597.97
2022-10-06T09:26:58.805Z,102604.06
2022-10-06T09:29:27.858Z,102591.28
2022-10-06T09:31:54.396Z,102603.41
2022-10-06T09:34:40.576Z,102600.72
2022-10-06T09:37:10.947Z,102603.91
2022-10-06T09:39:39.880Z,102603.88
2022-10-06T09:42:14.608Z,102613.72
2022-10-06T09:44:50.946Z,102604.69
2022-10-06T09:47:32.466Z,102602.97
2022-10-06T09:50:15.831Z,102609.47
2022-10-06T09:53:01.759Z,102611.00
2022-10-06T09:55:34.170Z,102615.75
2022-10-06T09:58:01.497Z,102626.34
2022-10-06T10:00:46.988Z,102631.53
2022-10-06T10:03:13.502Z,102624.97
2022-10-06T10:05:47.921Z,102618.66
2022-10-06T10:08:14.235Z,102631.59
2022-10-06T10:10:41.226Z,102627.47
2022-10-06T10:13:24.622Z,102632.81
2022-10-06T10:15:57.520Z,102623.03
2022-10-06T10:18:30.249Z,102635.56
2022-10-06T10:21:05.120Z,102624.78
2022-10-06T10:23:38.957Z,102623.13
2022-10-06T10:26:23.492Z,102625.56
2022-10-06T10:28:57.421Z,102623.84
2022-10-06T10:31:49.800Z,102627.81
2022-10-06T10:34:36.604Z,102637.25
2022-10-06T10:37:33.514Z,102625.06
2022-10-06T10:40:28.904Z,102640.16
2022-10-06T10:43:14.071Z,102630.03
2022-10-06T10:45:51.272Z,102635.03
2022-10-06T10:48:24.190Z,102642.81
2022-10-06T10:50:58.005Z,102636.63
2022-10-06T10:53:42.517Z,102651.09
2022-10-06T10:56:11.991Z,102645.19
2022-10-06T10:58:43.095Z,102650.03
2022-10-06T11:01:16.587Z,102648.00
2022-10-06T11:03:43.393Z,102654.72
2022-10-06T11:06:22.120Z,102650.94
2022-10-06T11:09:41.579Z,102641.16
2022-10-06T11:12:23.625Z,102642.09
2022-10-06T11:15:05.548Z,102641.66
2022-10-06T11:17:44.188Z,102648.13
2022-10-06T11:20:57.740Z,102649.53
2022-10-06T11:24:38.349Z,102649.09
2022-10-06T11:27:38.587Z,102651.38
2022-10-06T11:30:26.424Z,102641.84
2022-10-06T11:33:02.019Z,102645.78
2022-10-06T11:35:41.449Z,102646.22
2022-10-06T11:38:23.278Z,102644.31
2022-10-06T11:40:55.449Z,102636.63
2022-10-06T11:43:43.199Z,102649.41
2022-10-06T11:46:42.646Z,102640.72
2022-10-06T11:49:28.878Z,102637.63
2022-10-06T11:52:15.157Z,102647.84
2022-10-06T11:54:47.484Z,102645.56
2022-10-06T11:57:26.275Z,102645.03
2022-10-06T12:00:15.978Z,102645.63
2022-10-06T12:02:44.703Z,102646.06
2022-10-06T12:05:44.689Z,102651.00
2022-10-06T12:08:00.869Z,102639.75
2022-10-06T12:10:30.238Z,102640.75
2022-10-06T12:19:38.170Z,102635.09
2022-10-06T12:22:22.753Z,102630.94
2022-10-06T12:24:57.905Z,102629.03
2022-10-06T12:27:27.465Z,102628.03
2022-10-06T12:30:03.844Z,102616.63
2022-10-06T12:32:38.838Z,102634.41
2022-10-06T12:35:08.235Z,102631.94
2022-10-06T12:37:40.660Z,102635.59
2022-10-06T12:40:44.260Z,102633.75
2022-10-06T12:43:20.842Z,102632.00
2022-10-06T12:45:56.271Z,102637.19
2022-10-06T12:48:41.663Z,102622.59
2022-10-06T12:51:35.054Z,102623.72
2022-10-06T12:54:17.240Z,102641.53
2022-10-06T12:56:44.088Z,102639.34
2022-10-06T12:59:43.529Z,102641.13
2022-10-06T13:02:25.485Z,102640.34
2022-10-06T13:05:00.283Z,102628.47
2022-10-06T13:07:33.034Z,102632.28
2022-10-06T13:10:14.685Z,102628.97
2022-10-06T13:12:46.583Z,102632.16
2022-10-06T13:18:00.197Z,102640.28
2022-10-06T13:20:42.701Z,102640.19
2022-10-06T13:23:11.828Z,102633.91
2022-10-06T13:25:46.212Z,102627.06
2022-10-06T13:28:21.349Z,102629.03
2022-10-06T13:31:15.012Z,102636.22
2022-10-06T13:33:43.279Z,102632.59
2022-10-06T13:36:11.932Z,102641.38
2022-10-06T13:38:39.673Z,102629.19
2022-10-06T13:41:24.591Z,102643.00
2022-10-06T13:44:01.467Z,102628.50
2022-10-06T13:46:31.892Z,102627.00
2022-10-06T13:49:03.500Z,102635.00
2022-10-06T13:51:32.157Z,102615.38
2022-10-06T13:54:01.231Z,102627.00
2022-10-06T13:56:34.706Z,102627.47
2022-10-06T13:59:19.826Z,102622.31
2022-10-06T14:01:46.336Z,102635.84
2022-10-06T14:04:14.628Z,102635.16
2022-10-06T14:06:52.372Z,102631.59
2022-10-06T14:09:27.512Z,102639.25
2022-10-06T14:12:27.671Z,102636.53
2022-10-06T14:14:54.214Z,102630.91
2022-10-06T14:17:25.614Z,102628.50
2022-10-06T14:19:52.310Z,102635.44
2022-10-06T14:22:38.238Z,102634.56
2022-10-06T14:25:11.715Z,102633.44
2022-10-06T14:27:38.200Z,102631.78
2022-10-06T14:30:05.089Z,102629.19
2022-10-06T14:32:31.445Z,102625.44
2022-10-06T14:34:57.834Z,102629.38
2022-10-06T14:37:24.235Z,102624.91
2022-10-06T14:39:51.719Z,102627.31
2022-10-06T14:42:18.182Z,102631.03
2022-10-06T14:44:44.815Z,102629.13
2022-10-06T14:47:12.922Z,102622.75
2022-10-06T14:49:39.322Z,102625.00
2022-10-06T14:52:06.986Z,102623.94
2022-10-06T14:54:34.534Z,102619.38
2022-10-06T14:57:00.947Z,102616.59
2022-10-06T14:59:27.445Z,102608.97
2022-10-06T15:01:53.810Z,102612.78
2022-10-06T15:04:24.327Z,102616.69
2022-10-06T15:07:09.505Z,102620.75
2022-10-06T15:09:36.046Z,102613.31
2022-10-06T15:12:03.216Z,102620.38
2022-10-06T15:14:30.009Z,102614.78
2022-10-06T15:16:59.896Z,102606.28
2022-10-06T15:19:27.091Z,102611.78
2022-10-06T15:21:53.765Z,102610.28
2022-10-06T15:24:20.157Z,102613.69
2022-10-06T15:27:05.554Z,102603.50
2022-10-06T15:29:34.735Z,102598.13
2022-10-06T15:32:02.213Z,102594.41
2022-10-06T15:34:30.488Z,102595.28
2022-10-06T15:36:57.792Z,102593.41
2022-10-06T15:39:29.373Z,102597.44
2022-10-06T15:41:56.462Z,102608.75
2022-10-06T15:44:23.314Z,102592.94
2022-10-06T15:46:54.588Z,102599.56
2022-10-06T15:49:23.314Z,102594.50
2022-10-06T15:51:57.426Z,102595.13
2022-10-06T15:54:26.808Z,102595.16
2022-10-06T15:56:58.930Z,102594.84
2022-10-06T15:59:27.275Z,102593.56
2022-10-06T16:02:00.553Z,102602.69
2022-10-06T16:04:47.123Z,102602.47
2022-10-06T16:07:19.085Z,102600.59
2022-10-06T16:09:50.274Z,102603.94
2022-10-06T16:12:19.836Z,102600.28
2022-10-06T16:14:46.624Z,102603.41
2022-10-06T16:17:14.188Z,102608.72
2022-10-06T16:19:41.032Z,102591.72
2022-10-06T16:22:11.002Z,102610.41
2022-10-06T16:24:37.414Z,102611.50
2022-10-06T16:27:03.981Z,102602.16
2022-10-06T16:29:30.620Z,102610.94
2022-10-06T16:31:57.843Z,102614.88
2022-10-06T16:34:25.539Z,102609.72
2022-10-06T16:36:52.411Z,102609.00
2022-10-06T16:39:21.315Z,102610.72
2022-10-06T16:41:48.326Z,102611.03
2022-10-06T16:44:14.833Z,102622.47
2022-10-06T16:46:41.390Z,102619.75
2022-10-06T16:49:09.230Z,102623.16
2022-10-06T16:51:38.984Z,102622.91
2022-10-06T16:54:13.160Z,102625.16
2022-10-06T16:56:42.212Z,102614.56
2022-10-06T16:59:14.695Z,102619.31
2022-10-06T17:01:41.470Z,102617.81
2022-10-06T17:04:15.749Z,102612.25
2022-10-06T17:06:44.720Z,102609.25
2022-10-06T17:09:19.482Z,102611.47
2022-10-06T17:11:51.408Z,102615.63
2022-10-06T17:14:18.741Z,102610.19
2022-10-06T17:16:46.637Z,102611.22
2022-10-06T17:19:15.520Z,102615.22
2022-10-06T17:21:47.118Z,102610.44
2022-10-06T17:24:14.883Z,102611.00
2022-10-06T17:26:42.962Z,102607.28
2022-10-06T17:29:17.426Z,102616.88
2022-10-06T17:31:44.936Z,102612.59
2022-10-06T17:34:15.949Z,102614.72
2022-10-06T17:36:48.252Z,102611.47
2022-10-06T17:39:16.477Z,102616.75
2022-10-06T17:41:44.105Z,102616.63
2022-10-06T17:44:22.461Z,102607.47
2022-10-06T17:46:51.449Z,102607.03
2022-10-06T17:49:22.149Z,102604.41
2022-10-06T17:51:49.747Z,102608.31
2022-10-06T17:54:21.925Z,102601.16
2022-10-06T17:56:50.834Z,102603.03
2022-10-06T17:59:22.432Z,102613.19
2022-10-06T18:01:51.167Z,102612.16
2022-10-06T18:04:18.858Z,102609.03
2022-10-06T18:06:46.874Z,102614.31
2022-10-06T18:09:14.501Z,102613.88
2022-10-06T18:11:48.121Z,102616.44
2022-10-06T18:14:19.568Z,102608.59
2022-10-06T18:16:55.909Z,102609.28
2022-10-06T18:19:29.989Z,102602.16
2022-10-06T18:22:12.910Z,102606.00
2022-10-06T18:24:40.007Z,102597.13
2022-10-06T18:27:07.850Z,102599.56
2022-10-06T18:29:37.077Z,102592.78
2022-10-06T18:32:51.081Z,102589.06
2022-10-06T18:37:38.553Z,102586.91
2022-10-06T18:40:08.574Z,102597.06
2022-10-06T18:42:35.849Z,102586.47
2022-10-06T18:45:21.061Z,102587.00
2022-10-06T18:48:07.427Z,102589.50
2022-10-06T18:50:34.981Z,102587.97
2022-10-06T18:53:01.726Z,102583.66
2022-10-06T18:55:29.761Z,102585.53
2022-10-06T18:57:56.165Z,102588.25
2022-10-06T19:00:22.519Z,102590.91
2022-10-06T19:02:51.739Z,102584.75
2022-10-06T19:05:18.146Z,102582.31
2022-10-06T19:07:45.124Z,102589.06
2022-10-06T19:10:11.820Z,102571.19
2022-10-06T19:12:38.176Z,102574.94
2022-10-06T19:15:04.930Z,102579.16
2022-10-06T19:17:31.280Z,102584.47
2022-10-06T19:19:57.654Z,102579.81
2022-10-06T19:22:24.970Z,102586.09
2022-10-06T19:24:51.553Z,102579.66
2022-10-06T19:27:23.953Z,102581.50
2022-10-06T19:29:56.355Z,102575.50
2022-10-06T19:32:26.152Z,102579.09
2022-10-06T19:34:53.112Z,102582.63
2022-10-06T19:37:19.551Z,102590.19
2022-10-06T19:39:48.087Z,102586.81
2022-10-06T19:42:34.895Z,102585.34
2022-10-06T19:45:01.914Z,102584.50
2022-10-06T19:47:29.086Z,102588.00
2022-10-06T19:50:00.530Z,102593.88
2022-10-06T19:52:28.677Z,102586.13
2022-10-06T19:54:55.035Z,102584.25
2022-10-06T19:57:21.379Z,102577.69
2022-10-06T19:59:47.733Z,102581.00
2022-10-06T20:02:14.138Z,102577.22
2022-10-06T20:04:40.612Z,102576.53
2022-10-06T20:07:08.626Z,102585.94
2022-10-06T20:09:35.654Z,102586.19
2022-10-06T20:12:02.058Z,102582.94
2022-10-06T20:14:29.103Z,102583.66
2022-10-06T20:16:56.484Z,102582.34
2022-10-06T20:19:25.450Z,102580.88
2022-10-06T20:21:53.041Z,102578.16
2022-10-06T20:24:22.850Z,102584.03
2022-10-06T20:26:50.551Z,102570.66
2022-10-06T20:29:22.896Z,102581.75
2022-10-06T20:31:52.548Z,102577.44
2022-10-06T20:34:21.483Z,102580.31
2022-10-06T20:36:51.923Z,102577.75
2022-10-06T20:39:41.354Z,102581.53
2022-10-06T20:42:12.270Z,102582.69
2022-10-06T20:44:42.258Z,102570.84
2022-10-06T20:47:10.252Z,102572.19
2022-10-06T20:49:36.881Z,102574.41
2022-10-06T20:52:04.582Z,102574.41
2022-10-06T20:54:34.743Z,102572.03
2022-10-06T20:57:04.059Z,102566.66
2022-10-06T20:59:31.608Z,102569.91
2022-10-06T21:02:00.103Z,102571.41
2022-10-06T21:04:29.942Z,102575.16
2022-10-06T21:06:57.180Z,102572.28
2022-10-06T21:09:24.511Z,102573.44
2022-10-06T21:11:51.403Z,102568.41
2022-10-06T21:14:18.348Z,102563.00
2022-10-06T21:16:46.325Z,102554.19
2022-10-06T21:19:15.528Z,102553.31
2022-10-06T21:21:43.733Z,102562.22
2022-10-06T21:24:10.134Z,102558.00
2022-10-06T21:26:38.635Z,102560.44
2022-10-06T21:29:05.489Z,102558.03
2022-10-06T21:31:33.035Z,102555.41
2022-10-06T21:34:01.243Z,102557.47
2022-10-06T21:36:31.223Z,102559.53
2022-10-06T21:38:58.745Z,102552.59
2022-10-06T21:41:30.508Z,102544.88
2022-10-06T21:44:01.090Z,102538.19
2022-10-06T21:46:30.370Z,102544.13
2022-10-06T21:48:58.629Z,102541.75
2022-10-06T21:51:26.677Z,102546.47
2022-10-06T21:53:56.774Z,102545.13
2022-10-06T21:56:24.438Z,102544.22
2022-10-06T21:58:52.930Z,102541.03
2022-10-06T22:01:21.366Z,102541.47
2022-10-06T22:03:48.728Z,102541.47
2022-10-06T22:06:19.377Z,102524.38
2022-10-06T22:08:47.064Z,102518.97
2022-10-06T22:11:20.070Z,102525.16
2022-10-06T22:13:49.790Z,102518.28
2022-10-06T22:16:19.200Z,102519.41
2022-10-06T22:18:46.175Z,102509.75
2022-10-06T22:21:15.351Z,102507.53
2022-10-06T22:23:43.630Z,102505.03
2022-10-06T22:26:11.773Z,102498.47
2022-10-06T22:28:38.816Z,102500.75
2022-10-06T22:31:10.217Z,102500.47
2022-10-06T22:33:41.048Z,102497.28
2022-10-06T22:36:10.045Z,102506.75
2022-10-06T22:38:36.456Z,102502.47
2022-10-06T22:41:08.573Z,102500.25
2022-10-06T22:43:35.462Z,102497.63
2022-10-06T22:46:02.697Z,102492.84
2022-10-06T22:48:29.795Z,102493.34
2022-10-06T22:50:56.239Z,102492.38
2022-10-06T22:53:25.188Z,102490.63
2022-10-06T22:55:52.610Z,102488.78
2022-10-06T22:58:19.186Z,102487.69
2022-10-06T23:00:45.702Z,102488.69
2022-10-06T23:03:12.623Z,102482.03
2022-10-06T23:05:39.704Z,102480.94
2022-10-06T23:08:07.614Z,102473.69
2022-10-06T23:10:35.261Z,102469.41
2022-10-06T23:13:02.180Z,102465.34
2022-10-06T23:15:28.965Z,102465.00
2022-10-06T23:17:55.488Z,102456.28
2022-10-06T23:20:22.106Z,102462.41
2022-10-06T23:22:48.543Z,102458.00
2022-10-06T23:25:15.034Z,102456.91
2022-10-06T23:27:41.673Z,102455.88
2022-10-06T23:30:09.099Z,102444.16
2022-10-06T23:32:37.461Z,102441.41
2022-10-06T23:35:04.515Z,102437.84
2022-10-06T23:37:31.073Z,102441.03
2022-10-06T23:39:57.656Z,102437.59
2022-10-06T23:42:24.145Z,102438.22
2022-10-06T23:44:50.543Z,102437.50
2022-10-06T23:47:16.930Z,102442.28
2022-10-06T23:49:43.647Z,102430.38
2022-10-06T23:52:10.296Z,102435.53
2022-10-06T23:54:37.034Z,102431.09
2022-10-06T23:57:03.866Z,102428.66
2022-10-06T23:59:31.452Z,102423.03
